sensor_id;sensor_type;location;lat;lon;timestamp;temperature;humidity
52187;DHT22;38161;53.020;6.598;2023-01-29T00:01:12;3.30;99.90
52187;DHT22;38161;53.020;6.598;2023-01-29T00:03:39;3.30;99.90
52187;DHT22;38161;53.020;6.598;2023-01-29T00:06:07;3.30;99.90
52187;DHT22;38161;53.020;6.598;2023-01-29T00:08:34;3.30;99.90
52187;DHT22;38161;53.020;6.598;2023-01-29T00:11:01;3.30;99.90
52187;DHT22;38161;53.020;6.598;2023-01-29T00:13:28;3.30;99.90
52187;DHT22;38161;53.020;6.598;2023-01-29T00:15:54;3.30;99.90
52187;DHT22;38161;53.020;6.598;2023-01-29T00:18:21;3.30;99.90
52187;DHT22;38161;53.020;6.598;2023-01-29T00:20:47;3.30;99.90
52187;DHT22;38161;53.020;6.598;2023-01-29T00:23:12;3.30;99.90
52187;DHT22;38161;53.020;6.598;2023-01-29T00:25:40;3.30;99.90
52187;DHT22;38161;53.020;6.598;2023-01-29T00:28:06;4.30;99.90
52187;DHT22;38161;53.020;6.598;2023-01-29T00:30:31;3.30;99.90
52187;DHT22;38161;53.020;6.598;2023-01-29T00:32:57;3.30;99.90
52187;DHT22;38161;53.020;6.598;2023-01-29T00:35:23;3.30;99.90
52187;DHT22;38161;53.020;6.598;2023-01-29T00:37:49;3.40;99.90
52187;DHT22;38161;53.020;6.598;2023-01-29T00:40:15;3.40;99.90
52187;DHT22;38161;53.020;6.598;2023-01-29T00:42:43;3.40;99.90
52187;DHT22;38161;53.020;6.598;2023-01-29T00:45:27;3.40;99.90
52187;DHT22;38161;53.020;6.598;2023-01-29T00:47:53;3.40;99.90
52187;DHT22;38161;53.020;6.598;2023-01-29T00:50:18;3.40;99.90
52187;DHT22;38161;53.020;6.598;2023-01-29T00:52:44;3.40;99.90
52187;DHT22;38161;53.020;6.598;2023-01-29T00:55:10;3.50;99.90
52187;DHT22;38161;53.020;6.598;2023-01-29T00:57:37;3.40;99.90
52187;DHT22;38161;53.020;6.598;2023-01-29T01:00:06;3.40;99.90
52187;DHT22;38161;53.020;6.598;2023-01-29T01:02:32;3.40;99.90
52187;DHT22;38161;53.020;6.598;2023-01-29T01:05:17;3.40;99.90
52187;DHT22;38161;53.020;6.598;2023-01-29T01:07:47;3.70;99.90
52187;DHT22;38161;53.020;6.598;2023-01-29T01:10:16;3.40;99.90
52187;DHT22;38161;53.020;6.598;2023-01-29T01:12:50;3.40;99.90
52187;DHT22;38161;53.020;6.598;2023-01-29T01:15:17;3.40;99.90
52187;DHT22;38161;53.020;6.598;2023-01-29T01:17:43;3.40;99.90
52187;DHT22;38161;53.020;6.598;2023-01-29T01:20:09;3.40;99.90
52187;DHT22;38161;53.020;6.598;2023-01-29T01:22:35;3.40;99.90
52187;DHT22;38161;53.020;6.598;2023-01-29T01:25:01;3.40;99.90
52187;DHT22;38161;53.020;6.598;2023-01-29T01:27:27;3.50;99.90
52187;DHT22;38161;53.020;6.598;2023-01-29T01:29:52;3.50;99.90
52187;DHT22;38161;53.020;6.598;2023-01-29T01:32:18;3.50;99.90
52187;DHT22;38161;53.020;6.598;2023-01-29T01:34:44;3.50;99.90
52187;DHT22;38161;53.020;6.598;2023-01-29T01:37:10;3.50;99.90
52187;DHT22;38161;53.020;6.598;2023-01-29T01:39:36;3.50;99.90
52187;DHT22;38161;53.020;6.598;2023-01-29T01:42:02;3.50;99.90
52187;DHT22;38161;53.020;6.598;2023-01-29T01:44:54;3.50;99.90
52187;DHT22;38161;53.020;6.598;2023-01-29T01:47:28;3.50;99.90
52187;DHT22;38161;53.020;6.598;2023-01-29T01:50:04;3.50;99.90
52187;DHT22;38161;53.020;6.598;2023-01-29T01:52:33;3.50;99.90
52187;DHT22;38161;53.020;6.598;2023-01-29T01:55:00;3.50;99.90
52187;DHT22;38161;53.020;6.598;2023-01-29T01:57:26;3.50;99.90
52187;DHT22;38161;53.020;6.598;2023-01-29T01:59:58;3.50;99.90
52187;DHT22;38161;53.020;6.598;2023-01-29T02:02:28;3.50;99.90
52187;DHT22;38161;53.020;6.598;2023-01-29T02:05:13;3.50;99.90
52187;DHT22;38161;53.020;6.598;2023-01-29T02:07:58;3.50;99.90
52187;DHT22;38161;53.020;6.598;2023-01-29T02:10:45;3.50;99.90
52187;DHT22;38161;53.020;6.598;2023-01-29T02:13:11;3.50;99.90
52187;DHT22;38161;53.020;6.598;2023-01-29T02:15:41;3.50;99.90
52187;DHT22;38161;53.020;6.598;2023-01-29T02:18:14;3.50;99.90
52187;DHT22;38161;53.020;6.598;2023-01-29T02:21:06;3.50;99.90
52187;DHT22;38161;53.020;6.598;2023-01-29T02:23:44;3.50;99.90
52187;DHT22;38161;53.020;6.598;2023-01-29T02:26:46;3.50;99.90
52187;DHT22;38161;53.020;6.598;2023-01-29T02:34:53;3.50;99.90
52187;DHT22;38161;53.020;6.598;2023-01-29T02:40:51;3.50;99.90
52187;DHT22;38161;53.020;6.598;2023-01-29T02:43:39;3.50;99.90
52187;DHT22;38161;53.020;6.598;2023-01-29T02:49:30;3.50;99.90
52187;DHT22;38161;53.020;6.598;2023-01-29T02:54:50;3.50;99.90
52187;DHT22;38161;53.020;6.598;2023-01-29T02:57:22;3.50;99.90
52187;DHT22;38161;53.020;6.598;2023-01-29T02:59:55;3.50;99.90
52187;DHT22;38161;53.020;6.598;2023-01-29T03:02:32;3.50;99.90
52187;DHT22;38161;53.020;6.598;2023-01-29T03:05:02;3.50;99.90
52187;DHT22;38161;53.020;6.598;2023-01-29T03:07:36;3.50;99.90
52187;DHT22;38161;53.020;6.598;2023-01-29T03:10:16;3.50;99.90
52187;DHT22;38161;53.020;6.598;2023-01-29T03:12:45;3.60;99.90
52187;DHT22;38161;53.020;6.598;2023-01-29T03:15:17;3.50;99.90
52187;DHT22;38161;53.020;6.598;2023-01-29T03:17:54;3.50;99.90
52187;DHT22;38161;53.020;6.598;2023-01-29T03:20:29;3.50;99.90
52187;DHT22;38161;53.020;6.598;2023-01-29T03:23:01;3.50;99.90
52187;DHT22;38161;53.020;6.598;2023-01-29T03:25:28;3.50;99.90
52187;DHT22;38161;53.020;6.598;2023-01-29T03:28:16;3.50;99.90
52187;DHT22;38161;53.020;6.598;2023-01-29T03:31:06;3.60;99.90
52187;DHT22;38161;53.020;6.598;2023-01-29T03:34:02;3.60;99.90
52187;DHT22;38161;53.020;6.598;2023-01-29T03:36:48;3.60;99.90
52187;DHT22;38161;53.020;6.598;2023-01-29T03:39:21;3.60;99.90
52187;DHT22;38161;53.020;6.598;2023-01-29T03:53:11;3.60;99.90
52187;DHT22;38161;53.020;6.598;2023-01-29T03:56:03;3.60;99.90
52187;DHT22;38161;53.020;6.598;2023-01-29T03:58:56;3.60;99.90
52187;DHT22;38161;53.020;6.598;2023-01-29T04:01:31;3.60;99.90
52187;DHT22;38161;53.020;6.598;2023-01-29T04:04:04;3.70;99.90
52187;DHT22;38161;53.020;6.598;2023-01-29T04:06:35;3.60;99.90
52187;DHT22;38161;53.020;6.598;2023-01-29T04:11:30;3.70;99.90
52187;DHT22;38161;53.020;6.598;2023-01-29T04:13:57;3.60;99.90
52187;DHT22;38161;53.020;6.598;2023-01-29T04:16:31;3.70;99.90
52187;DHT22;38161;53.020;6.598;2023-01-29T04:18:59;3.60;99.90
52187;DHT22;38161;53.020;6.598;2023-01-29T04:21:25;3.60;99.90
52187;DHT22;38161;53.020;6.598;2023-01-29T04:23:51;3.60;99.90
52187;DHT22;38161;53.020;6.598;2023-01-29T04:29:49;3.60;99.90
52187;DHT22;38161;53.020;6.598;2023-01-29T04:32:54;3.60;99.90
52187;DHT22;38161;53.020;6.598;2023-01-29T04:41:00;3.60;99.90
52187;DHT22;38161;53.020;6.598;2023-01-29T04:46:18;3.60;99.90
52187;DHT22;38161;53.020;6.598;2023-01-29T04:48:58;3.60;99.90
52187;DHT22;38161;53.020;6.598;2023-01-29T04:54:35;3.60;99.90
52187;DHT22;38161;53.020;6.598;2023-01-29T04:59:42;3.70;99.90
52187;DHT22;38161;53.020;6.598;2023-01-29T05:02:11;3.70;99.90
52187;DHT22;38161;53.020;6.598;2023-01-29T05:04:38;3.70;99.90
52187;DHT22;38161;53.020;6.598;2023-01-29T05:07:08;3.70;99.90
52187;DHT22;38161;53.020;6.598;2023-01-29T05:09:35;3.70;99.90
52187;DHT22;38161;53.020;6.598;2023-01-29T05:12:05;3.70;99.90
52187;DHT22;38161;53.020;6.598;2023-01-29T05:14:33;3.70;99.90
52187;DHT22;38161;53.020;6.598;2023-01-29T05:17:02;3.70;99.90
52187;DHT22;38161;53.020;6.598;2023-01-29T05:19:29;3.70;99.90
52187;DHT22;38161;53.020;6.598;2023-01-29T05:21:55;3.70;99.90
52187;DHT22;38161;53.020;6.598;2023-01-29T05:24:23;3.70;99.90
52187;DHT22;38161;53.020;6.598;2023-01-29T05:26:51;3.60;99.90
52187;DHT22;38161;53.020;6.598;2023-01-29T05:29:36;3.60;99.90
52187;DHT22;38161;53.020;6.598;2023-01-29T05:32:02;3.60;99.90
52187;DHT22;38161;53.020;6.598;2023-01-29T05:34:28;3.60;99.90
52187;DHT22;38161;53.020;6.598;2023-01-29T05:36:54;3.60;99.90
52187;DHT22;38161;53.020;6.598;2023-01-29T05:39:20;3.70;99.90
52187;DHT22;38161;53.020;6.598;2023-01-29T05:41:46;3.60;99.90
52187;DHT22;38161;53.020;6.598;2023-01-29T05:44:11;3.80;99.90
52187;DHT22;38161;53.020;6.598;2023-01-29T05:46:37;3.60;99.90
52187;DHT22;38161;53.020;6.598;2023-01-29T05:49:03;3.60;99.90
52187;DHT22;38161;53.020;6.598;2023-01-29T05:51:29;3.80;99.90
52187;DHT22;38161;53.020;6.598;2023-01-29T05:53:55;3.60;99.90
52187;DHT22;38161;53.020;6.598;2023-01-29T05:56:21;3.90;99.90
52187;DHT22;38161;53.020;6.598;2023-01-29T05:58:46;3.60;99.90
52187;DHT22;38161;53.020;6.598;2023-01-29T06:01:18;3.80;99.90
52187;DHT22;38161;53.020;6.598;2023-01-29T06:03:44;3.60;99.90
52187;DHT22;38161;53.020;6.598;2023-01-29T06:06:11;3.60;99.90
52187;DHT22;38161;53.020;6.598;2023-01-29T06:08:37;3.60;99.90
52187;DHT22;38161;53.020;6.598;2023-01-29T06:11:03;3.60;99.90
52187;DHT22;38161;53.020;6.598;2023-01-29T06:13:29;3.70;99.90
52187;DHT22;38161;53.020;6.598;2023-01-29T06:15:55;3.60;99.90
52187;DHT22;38161;53.020;6.598;2023-01-29T06:18:20;4.00;99.90
52187;DHT22;38161;53.020;6.598;2023-01-29T06:20:46;3.60;99.90
52187;DHT22;38161;53.020;6.598;2023-01-29T06:23:12;3.60;99.90
52187;DHT22;38161;53.020;6.598;2023-01-29T06:25:37;3.60;99.90
52187;DHT22;38161;53.020;6.598;2023-01-29T06:28:03;3.60;99.90
52187;DHT22;38161;53.020;6.598;2023-01-29T06:30:29;3.60;99.90
52187;DHT22;38161;53.020;6.598;2023-01-29T06:32:56;3.60;99.90
52187;DHT22;38161;53.020;6.598;2023-01-29T06:35:23;3.60;99.90
52187;DHT22;38161;53.020;6.598;2023-01-29T06:37:49;3.60;99.90
52187;DHT22;38161;53.020;6.598;2023-01-29T06:40:15;3.80;99.90
52187;DHT22;38161;53.020;6.598;2023-01-29T06:42:41;3.60;99.90
52187;DHT22;38161;53.020;6.598;2023-01-29T06:45:07;3.70;99.90
52187;DHT22;38161;53.020;6.598;2023-01-29T06:47:33;3.60;99.90
52187;DHT22;38161;53.020;6.598;2023-01-29T06:49:59;3.60;99.90
52187;DHT22;38161;53.020;6.598;2023-01-29T06:52:25;3.60;99.90
52187;DHT22;38161;53.020;6.598;2023-01-29T06:54:53;3.60;99.90
52187;DHT22;38161;53.020;6.598;2023-01-29T06:57:19;3.60;99.90
52187;DHT22;38161;53.020;6.598;2023-01-29T06:59:45;3.60;99.90
52187;DHT22;38161;53.020;6.598;2023-01-29T07:02:11;3.60;99.90
52187;DHT22;38161;53.020;6.598;2023-01-29T07:04:37;3.60;99.90
52187;DHT22;38161;53.020;6.598;2023-01-29T07:07:04;3.60;99.90
52187;DHT22;38161;53.020;6.598;2023-01-29T07:09:30;3.60;99.90
52187;DHT22;38161;53.020;6.598;2023-01-29T07:11:56;3.60;99.90
52187;DHT22;38161;53.020;6.598;2023-01-29T07:14:21;3.60;99.90
52187;DHT22;38161;53.020;6.598;2023-01-29T07:16:47;3.60;99.90
52187;DHT22;38161;53.020;6.598;2023-01-29T07:19:13;3.60;99.90
52187;DHT22;38161;53.020;6.598;2023-01-29T07:21:38;3.60;99.90
52187;DHT22;38161;53.020;6.598;2023-01-29T07:24:04;3.60;99.90
52187;DHT22;38161;53.020;6.598;2023-01-29T07:26:30;3.60;99.90
52187;DHT22;38161;53.020;6.598;2023-01-29T07:28:55;3.60;99.90
52187;DHT22;38161;53.020;6.598;2023-01-29T07:31:21;3.60;99.90
52187;DHT22;38161;53.020;6.598;2023-01-29T07:33:47;3.60;99.90
52187;DHT22;38161;53.020;6.598;2023-01-29T07:36:13;3.60;99.90
52187;DHT22;38161;53.020;6.598;2023-01-29T07:38:39;3.60;99.90
52187;DHT22;38161;53.020;6.598;2023-01-29T07:41:05;3.60;99.90
52187;DHT22;38161;53.020;6.598;2023-01-29T07:43:31;3.60;99.90
52187;DHT22;38161;53.020;6.598;2023-01-29T07:46:00;3.60;99.90
52187;DHT22;38161;53.020;6.598;2023-01-29T07:48:26;3.60;99.90
52187;DHT22;38161;53.020;6.598;2023-01-29T07:50:55;3.60;99.90
52187;DHT22;38161;53.020;6.598;2023-01-29T07:53:22;3.60;99.90
52187;DHT22;38161;53.020;6.598;2023-01-29T07:55:47;3.50;99.90
52187;DHT22;38161;53.020;6.598;2023-01-29T07:58:13;3.50;99.90
52187;DHT22;38161;53.020;6.598;2023-01-29T08:00:39;3.50;99.90
52187;DHT22;38161;53.020;6.598;2023-01-29T08:03:08;3.40;99.90
52187;DHT22;38161;53.020;6.598;2023-01-29T08:05:34;3.50;99.90
52187;DHT22;38161;53.020;6.598;2023-01-29T08:07:59;3.50;99.90
52187;DHT22;38161;53.020;6.598;2023-01-29T08:10:25;3.50;99.90
52187;DHT22;38161;53.020;6.598;2023-01-29T08:12:56;3.50;99.90
52187;DHT22;38161;53.020;6.598;2023-01-29T08:15:22;3.50;99.90
52187;DHT22;38161;53.020;6.598;2023-01-29T08:17:49;3.50;99.90
52187;DHT22;38161;53.020;6.598;2023-01-29T08:20:15;3.50;99.90
52187;DHT22;38161;53.020;6.598;2023-01-29T08:22:41;3.50;99.90
52187;DHT22;38161;53.020;6.598;2023-01-29T08:25:07;3.70;99.90
52187;DHT22;38161;53.020;6.598;2023-01-29T08:27:32;3.60;99.90
52187;DHT22;38161;53.020;6.598;2023-01-29T08:29:58;3.60;99.90
52187;DHT22;38161;53.020;6.598;2023-01-29T08:32:24;3.60;99.90
52187;DHT22;38161;53.020;6.598;2023-01-29T08:34:50;3.70;99.90
52187;DHT22;38161;53.020;6.598;2023-01-29T08:37:15;3.70;99.90
52187;DHT22;38161;53.020;6.598;2023-01-29T08:39:41;3.70;99.90
52187;DHT22;38161;53.020;6.598;2023-01-29T08:42:07;3.70;99.90
52187;DHT22;38161;53.020;6.598;2023-01-29T08:44:32;3.70;99.90
52187;DHT22;38161;53.020;6.598;2023-01-29T08:46:58;3.80;99.90
52187;DHT22;38161;53.020;6.598;2023-01-29T08:49:24;3.70;99.90
52187;DHT22;38161;53.020;6.598;2023-01-29T08:51:50;3.70;99.90
52187;DHT22;38161;53.020;6.598;2023-01-29T08:54:19;3.80;99.90
52187;DHT22;38161;53.020;6.598;2023-01-29T08:56:44;3.80;99.90
52187;DHT22;38161;53.020;6.598;2023-01-29T08:59:10;3.80;99.90
52187;DHT22;38161;53.020;6.598;2023-01-29T09:01:36;3.80;99.90
52187;DHT22;38161;53.020;6.598;2023-01-29T09:04:02;3.80;99.90
52187;DHT22;38161;53.020;6.598;2023-01-29T09:06:27;3.80;99.90
52187;DHT22;38161;53.020;6.598;2023-01-29T09:08:53;4.00;99.90
52187;DHT22;38161;53.020;6.598;2023-01-29T09:11:19;3.90;99.90
52187;DHT22;38161;53.020;6.598;2023-01-29T09:13:44;4.00;99.90
52187;DHT22;38161;53.020;6.598;2023-01-29T09:16:10;3.90;99.90
52187;DHT22;38161;53.020;6.598;2023-01-29T09:18:36;4.00;99.90
52187;DHT22;38161;53.020;6.598;2023-01-29T09:21:02;4.00;99.90
52187;DHT22;38161;53.020;6.598;2023-01-29T09:23:29;4.00;99.90
52187;DHT22;38161;53.020;6.598;2023-01-29T09:25:55;4.00;99.90
52187;DHT22;38161;53.020;6.598;2023-01-29T09:28:21;4.00;99.90
52187;DHT22;38161;53.020;6.598;2023-01-29T09:30:47;4.10;99.90
52187;DHT22;38161;53.020;6.598;2023-01-29T09:33:13;4.10;99.90
52187;DHT22;38161;53.020;6.598;2023-01-29T09:35:40;4.10;99.90
52187;DHT22;38161;53.020;6.598;2023-01-29T09:38:10;4.10;99.90
52187;DHT22;38161;53.020;6.598;2023-01-29T09:45:57;4.10;99.90
52187;DHT22;38161;53.020;6.598;2023-01-29T09:48:25;4.10;99.90
52187;DHT22;38161;53.020;6.598;2023-01-29T09:50:53;4.10;99.90
52187;DHT22;38161;53.020;6.598;2023-01-29T09:53:44;4.20;99.90
52187;DHT22;38161;53.020;6.598;2023-01-29T09:56:14;4.20;99.90
52187;DHT22;38161;53.020;6.598;2023-01-29T09:58:42;4.20;99.90
52187;DHT22;38161;53.020;6.598;2023-01-29T10:04:04;4.30;99.90
52187;DHT22;38161;53.020;6.598;2023-01-29T10:15:11;4.40;99.90
52187;DHT22;38161;53.020;6.598;2023-01-29T10:20:44;4.40;99.90
52187;DHT22;38161;53.020;6.598;2023-01-29T10:25:47;4.40;99.90
52187;DHT22;38161;53.020;6.598;2023-01-29T10:28:20;4.40;99.90
52187;DHT22;38161;53.020;6.598;2023-01-29T10:30:50;4.30;99.90
52187;DHT22;38161;53.020;6.598;2023-01-29T10:33:48;4.30;99.90
52187;DHT22;38161;53.020;6.598;2023-01-29T10:36:21;4.30;99.90
52187;DHT22;38161;53.020;6.598;2023-01-29T10:38:49;4.30;99.90
52187;DHT22;38161;53.020;6.598;2023-01-29T10:47:23;4.20;99.90
52187;DHT22;38161;53.020;6.598;2023-01-29T10:55:49;4.30;99.90
52187;DHT22;38161;53.020;6.598;2023-01-29T11:01:17;4.30;99.90
52187;DHT22;38161;53.020;6.598;2023-01-29T11:03:43;4.30;99.90
52187;DHT22;38161;53.020;6.598;2023-01-29T11:11:30;4.30;99.90
52187;DHT22;38161;53.020;6.598;2023-01-29T11:14:00;4.30;99.90
52187;DHT22;38161;53.020;6.598;2023-01-29T11:16:42;4.30;99.90
52187;DHT22;38161;53.020;6.598;2023-01-29T11:19:09;4.30;99.90
52187;DHT22;38161;53.020;6.598;2023-01-29T11:22:00;4.30;99.90
52187;DHT22;38161;53.020;6.598;2023-01-29T11:24:26;4.30;99.90
52187;DHT22;38161;53.020;6.598;2023-01-29T11:26:58;4.30;99.90
52187;DHT22;38161;53.020;6.598;2023-01-29T11:29:31;4.30;99.90
52187;DHT22;38161;53.020;6.598;2023-01-29T11:31:59;4.30;99.90
52187;DHT22;38161;53.020;6.598;2023-01-29T11:34:25;4.40;99.90
52187;DHT22;38161;53.020;6.598;2023-01-29T11:37:14;4.40;99.90
52187;DHT22;38161;53.020;6.598;2023-01-29T11:39:43;4.40;99.90
52187;DHT22;38161;53.020;6.598;2023-01-29T11:42:21;4.40;99.90
52187;DHT22;38161;53.020;6.598;2023-01-29T11:44:47;4.40;99.90
52187;DHT22;38161;53.020;6.598;2023-01-29T11:47:20;4.40;99.90
52187;DHT22;38161;53.020;6.598;2023-01-29T11:49:52;4.50;99.90
52187;DHT22;38161;53.020;6.598;2023-01-29T11:52:24;4.50;99.90
52187;DHT22;38161;53.020;6.598;2023-01-29T11:55:04;4.50;99.90
52187;DHT22;38161;53.020;6.598;2023-01-29T11:57:34;4.50;99.90
52187;DHT22;38161;53.020;6.598;2023-01-29T12:00:18;4.50;99.90
52187;DHT22;38161;53.020;6.598;2023-01-29T12:02:48;4.50;99.90
52187;DHT22;38161;53.020;6.598;2023-01-29T12:05:23;4.50;99.90
52187;DHT22;38161;53.020;6.598;2023-01-29T12:07:52;4.50;99.90
52187;DHT22;38161;53.020;6.598;2023-01-29T12:10:36;4.60;99.90
52187;DHT22;38161;53.020;6.598;2023-01-29T12:13:25;4.60;99.90
52187;DHT22;38161;53.020;6.598;2023-01-29T12:16:24;4.60;99.90
52187;DHT22;38161;53.020;6.598;2023-01-29T12:18:56;4.60;99.90
52187;DHT22;38161;53.020;6.598;2023-01-29T12:21:34;4.60;99.90
52187;DHT22;38161;53.020;6.598;2023-01-29T12:26:49;4.70;99.90
52187;DHT22;38161;53.020;6.598;2023-01-29T12:32:44;4.70;99.90
52187;DHT22;38161;53.020;6.598;2023-01-29T12:35:23;4.70;99.90
52187;DHT22;38161;53.020;6.598;2023-01-29T12:40:27;4.70;99.90
52187;DHT22;38161;53.020;6.598;2023-01-29T12:43:00;4.60;99.90
52187;DHT22;38161;53.020;6.598;2023-01-29T12:45:27;4.70;99.90
52187;DHT22;38161;53.020;6.598;2023-01-29T12:48:01;4.70;99.90
52187;DHT22;38161;53.020;6.598;2023-01-29T12:50:32;4.70;99.90
52187;DHT22;38161;53.020;6.598;2023-01-29T12:53:33;4.60;99.90
52187;DHT22;38161;53.020;6.598;2023-01-29T12:58:51;4.70;99.90
52187;DHT22;38161;53.020;6.598;2023-01-29T13:01:32;4.60;99.90
52187;DHT22;38161;53.020;6.598;2023-01-29T13:04:08;4.70;99.90
52187;DHT22;38161;53.020;6.598;2023-01-29T13:06:41;4.60;99.90
52187;DHT22;38161;53.020;6.598;2023-01-29T13:09:14;4.60;99.90
52187;DHT22;38161;53.020;6.598;2023-01-29T13:12:11;4.60;99.90
52187;DHT22;38161;53.020;6.598;2023-01-29T13:19:53;4.50;99.90
52187;DHT22;38161;53.020;6.598;2023-01-29T13:24:49;4.50;99.90
52187;DHT22;38161;53.020;6.598;2023-01-29T13:27:25;4.50;99.90
52187;DHT22;38161;53.020;6.598;2023-01-29T13:29:52;4.50;99.90
52187;DHT22;38161;53.020;6.598;2023-01-29T13:32:25;4.40;99.90
52187;DHT22;38161;53.020;6.598;2023-01-29T13:34:54;4.40;99.90
52187;DHT22;38161;53.020;6.598;2023-01-29T13:37:32;4.40;99.90
52187;DHT22;38161;53.020;6.598;2023-01-29T13:39:59;4.40;99.90
52187;DHT22;38161;53.020;6.598;2023-01-29T13:42:39;4.40;99.90
52187;DHT22;38161;53.020;6.598;2023-01-29T13:45:08;4.40;99.90
52187;DHT22;38161;53.020;6.598;2023-01-29T13:47:39;4.30;99.90
52187;DHT22;38161;53.020;6.598;2023-01-29T13:52:45;4.30;99.90
52187;DHT22;38161;53.020;6.598;2023-01-29T14:07:55;4.30;99.90
52187;DHT22;38161;53.020;6.598;2023-01-29T14:10:22;4.30;99.90
52187;DHT22;38161;53.020;6.598;2023-01-29T14:12:53;4.30;99.90
52187;DHT22;38161;53.020;6.598;2023-01-29T14:15:25;4.30;99.90
52187;DHT22;38161;53.020;6.598;2023-01-29T14:20:55;4.30;99.90
52187;DHT22;38161;53.020;6.598;2023-01-29T14:25:53;4.20;99.90
52187;DHT22;38161;53.020;6.598;2023-01-29T14:28:23;4.20;99.90
52187;DHT22;38161;53.020;6.598;2023-01-29T14:30:50;3.40;99.90
52187;DHT22;38161;53.020;6.598;2023-01-29T14:33:39;4.20;99.90
52187;DHT22;38161;53.020;6.598;2023-01-29T14:36:09;4.20;99.90
52187;DHT22;38161;53.020;6.598;2023-01-29T14:38:37;4.20;99.90
52187;DHT22;38161;53.020;6.598;2023-01-29T14:41:13;4.20;99.90
52187;DHT22;38161;53.020;6.598;2023-01-29T14:43:41;4.10;99.90
52187;DHT22;38161;53.020;6.598;2023-01-29T14:49:00;4.10;99.90
52187;DHT22;38161;53.020;6.598;2023-01-29T14:51:30;4.10;99.90
52187;DHT22;38161;53.020;6.598;2023-01-29T14:54:26;4.10;99.90
52187;DHT22;38161;53.020;6.598;2023-01-29T14:56:57;4.10;99.90
52187;DHT22;38161;53.020;6.598;2023-01-29T14:59:48;4.10;99.90
52187;DHT22;38161;53.020;6.598;2023-01-29T15:02:31;4.10;99.90
52187;DHT22;38161;53.020;6.598;2023-01-29T15:05:06;4.10;99.90
52187;DHT22;38161;53.020;6.598;2023-01-29T15:07:46;4.00;99.90
52187;DHT22;38161;53.020;6.598;2023-01-29T15:15:53;4.00;99.90
52187;DHT22;38161;53.020;6.598;2023-01-29T15:18:40;4.00;99.90
52187;DHT22;38161;53.020;6.598;2023-01-29T15:21:11;4.00;99.90
52187;DHT22;38161;53.020;6.598;2023-01-29T15:23:38;4.00;99.90
52187;DHT22;38161;53.020;6.598;2023-01-29T15:26:07;4.00;99.90
52187;DHT22;38161;53.020;6.598;2023-01-29T15:28:37;4.00;99.90
52187;DHT22;38161;53.020;6.598;2023-01-29T15:31:05;4.00;99.90
52187;DHT22;38161;53.020;6.598;2023-01-29T15:33:34;4.00;99.90
52187;DHT22;38161;53.020;6.598;2023-01-29T15:36:03;4.00;99.90
52187;DHT22;38161;53.020;6.598;2023-01-29T15:38:30;4.00;99.90
52187;DHT22;38161;53.020;6.598;2023-01-29T15:43:26;4.00;99.90
52187;DHT22;38161;53.020;6.598;2023-01-29T15:46:00;4.00;99.90
52187;DHT22;38161;53.020;6.598;2023-01-29T15:50:57;4.10;99.90
52187;DHT22;38161;53.020;6.598;2023-01-29T15:53:57;4.00;99.90
52187;DHT22;38161;53.020;6.598;2023-01-29T15:56:18;4.00;99.90
52187;DHT22;38161;53.020;6.598;2023-01-29T15:58:50;4.00;99.90
52187;DHT22;38161;53.020;6.598;2023-01-29T16:01:16;4.00;99.90
52187;DHT22;38161;53.020;6.598;2023-01-29T16:03:43;4.00;99.90
52187;DHT22;38161;53.020;6.598;2023-01-29T16:06:10;4.00;99.90
52187;DHT22;38161;53.020;6.598;2023-01-29T16:08:37;4.00;99.90
52187;DHT22;38161;53.020;6.598;2023-01-29T16:11:05;4.00;99.90
52187;DHT22;38161;53.020;6.598;2023-01-29T16:13:37;4.00;99.90
52187;DHT22;38161;53.020;6.598;2023-01-29T16:16:20;4.00;99.90
52187;DHT22;38161;53.020;6.598;2023-01-29T16:18:47;4.00;99.90
52187;DHT22;38161;53.020;6.598;2023-01-29T16:21:36;4.00;99.90
52187;DHT22;38161;53.020;6.598;2023-01-29T16:24:11;4.10;99.90
52187;DHT22;38161;53.020;6.598;2023-01-29T16:26:44;4.00;99.90
52187;DHT22;38161;53.020;6.598;2023-01-29T16:29:17;4.10;99.90
52187;DHT22;38161;53.020;6.598;2023-01-29T16:31:44;4.10;99.90
52187;DHT22;38161;53.020;6.598;2023-01-29T16:36:52;4.10;99.90
52187;DHT22;38161;53.020;6.598;2023-01-29T16:39:24;4.10;99.90
52187;DHT22;38161;53.020;6.598;2023-01-29T16:44:36;4.10;99.90
52187;DHT22;38161;53.020;6.598;2023-01-29T16:47:34;4.10;99.90
52187;DHT22;38161;53.020;6.598;2023-01-29T16:53:01;4.10;99.90
52187;DHT22;38161;53.020;6.598;2023-01-29T16:55:34;4.10;99.90
52187;DHT22;38161;53.020;6.598;2023-01-29T16:58:04;4.10;99.90
52187;DHT22;38161;53.020;6.598;2023-01-29T17:00:35;4.10;99.90
52187;DHT22;38161;53.020;6.598;2023-01-29T17:03:06;4.00;99.90
52187;DHT22;38161;53.020;6.598;2023-01-29T17:05:35;4.00;99.90
52187;DHT22;38161;53.020;6.598;2023-01-29T17:08:02;4.00;99.90
52187;DHT22;38161;53.020;6.598;2023-01-29T17:10:30;4.00;99.90
52187;DHT22;38161;53.020;6.598;2023-01-29T17:13:01;4.00;99.90
52187;DHT22;38161;53.020;6.598;2023-01-29T17:15:50;4.00;99.90
52187;DHT22;38161;53.020;6.598;2023-01-29T17:18:18;4.00;99.90
52187;DHT22;38161;53.020;6.598;2023-01-29T17:20:45;4.00;99.90
52187;DHT22;38161;53.020;6.598;2023-01-29T17:23:12;4.00;99.90
52187;DHT22;38161;53.020;6.598;2023-01-29T17:25:38;4.00;99.90
52187;DHT22;38161;53.020;6.598;2023-01-29T17:28:04;4.00;99.90
52187;DHT22;38161;53.020;6.598;2023-01-29T17:30:32;4.00;99.90
52187;DHT22;38161;53.020;6.598;2023-01-29T17:33:11;4.00;99.90
52187;DHT22;38161;53.020;6.598;2023-01-29T17:35:38;4.00;99.90
52187;DHT22;38161;53.020;6.598;2023-01-29T17:38:12;4.00;99.90
52187;DHT22;38161;53.020;6.598;2023-01-29T17:40:55;4.00;99.90
52187;DHT22;38161;53.020;6.598;2023-01-29T17:43:22;4.00;99.90
52187;DHT22;38161;53.020;6.598;2023-01-29T17:45:48;4.00;99.90
52187;DHT22;38161;53.020;6.598;2023-01-29T17:48:18;4.00;99.90
52187;DHT22;38161;53.020;6.598;2023-01-29T17:50:47;4.00;99.90
52187;DHT22;38161;53.020;6.598;2023-01-29T17:53:14;4.10;99.90
52187;DHT22;38161;53.020;6.598;2023-01-29T17:55:40;4.10;99.90
52187;DHT22;38161;53.020;6.598;2023-01-29T17:58:19;4.10;99.90
52187;DHT22;38161;53.020;6.598;2023-01-29T18:00:46;4.10;99.90
52187;DHT22;38161;53.020;6.598;2023-01-29T18:03:12;4.10;99.90
52187;DHT22;38161;53.020;6.598;2023-01-29T18:05:38;4.10;99.90
52187;DHT22;38161;53.020;6.598;2023-01-29T18:08:28;4.10;99.90
52187;DHT22;38161;53.020;6.598;2023-01-29T18:10:55;4.10;99.90
52187;DHT22;38161;53.020;6.598;2023-01-29T18:13:21;4.10;99.90
52187;DHT22;38161;53.020;6.598;2023-01-29T18:15:46;4.10;99.90
52187;DHT22;38161;53.020;6.598;2023-01-29T18:18:14;4.10;99.90
52187;DHT22;38161;53.020;6.598;2023-01-29T18:20:41;4.10;99.90
52187;DHT22;38161;53.020;6.598;2023-01-29T18:23:10;4.10;99.90
52187;DHT22;38161;53.020;6.598;2023-01-29T18:25:36;4.10;99.90
52187;DHT22;38161;53.020;6.598;2023-01-29T18:28:03;4.10;99.90
52187;DHT22;38161;53.020;6.598;2023-01-29T18:30:29;4.10;99.90
52187;DHT22;38161;53.020;6.598;2023-01-29T18:32:55;4.10;99.90
52187;DHT22;38161;53.020;6.598;2023-01-29T18:35:24;4.20;99.90
52187;DHT22;38161;53.020;6.598;2023-01-29T18:37:50;4.20;99.90